sensor_id;sensor_type;location;lat;lon;timestamp;P1;durP1;ratioP1;P2;durP2;ratioP2
39948;SDS011;29070;48.102;-1.652;2022-12-18T00:04:23;27.98;;;10.80;;
39948;SDS011;29070;48.102;-1.652;2022-12-18T00:09:24;27.98;;;10.48;;
39948;SDS011;29070;48.102;-1.652;2022-12-18T00:14:25;28.90;;;10.77;;
39948;SDS011;29070;48.102;-1.652;2022-12-18T00:19:25;26.02;;;10.68;;
39948;SDS011;29070;48.102;-1.652;2022-12-18T00:24:25;28.65;;;11.18;;
39948;SDS011;29070;48.102;-1.652;2022-12-18T00:29:26;26.65;;;10.40;;
39948;SDS011;29070;48.102;-1.652;2022-12-18T00:34:26;26.98;;;10.45;;
39948;SDS011;29070;48.102;-1.652;2022-12-18T00:39:27;30.35;;;10.90;;
39948;SDS011;29070;48.102;-1.652;2022-12-18T00:44:27;32.77;;;11.13;;
39948;SDS011;29070;48.102;-1.652;2022-12-18T00:49:27;28.83;;;11.03;;
39948;SDS011;29070;48.102;-1.652;2022-12-18T00:54:28;29.13;;;10.52;;
39948;SDS011;29070;48.102;-1.652;2022-12-18T00:59:28;27.30;;;11.13;;
39948;SDS011;29070;48.102;-1.652;2022-12-18T01:04:32;29.63;;;10.80;;
39948;SDS011;29070;48.102;-1.652;2022-12-18T01:09:33;29.40;;;11.48;;
39948;SDS011;29070;48.102;-1.652;2022-12-18T01:14:34;28.90;;;11.10;;
39948;SDS011;29070;48.102;-1.652;2022-12-18T01:19:34;24.80;;;10.03;;
39948;SDS011;29070;48.102;-1.652;2022-12-18T01:24:35;30.03;;;10.73;;
39948;SDS011;29070;48.102;-1.652;2022-12-18T01:29:35;27.65;;;10.15;;
39948;SDS011;29070;48.102;-1.652;2022-12-18T01:34:36;29.03;;;11.17;;
39948;SDS011;29070;48.102;-1.652;2022-12-18T01:39:37;28.65;;;10.68;;
39948;SDS011;29070;48.102;-1.652;2022-12-18T01:49:55;27.42;;;11.73;;
39948;SDS011;29070;48.102;-1.652;2022-12-18T01:54:57;28.67;;;11.10;;
39948;SDS011;29070;48.102;-1.652;2022-12-18T02:00:03;27.20;;;11.35;;
39948;SDS011;29070;48.102;-1.652;2022-12-18T02:05:07;28.98;;;10.40;;
39948;SDS011;29070;48.102;-1.652;2022-12-18T02:10:15;29.05;;;10.70;;
39948;SDS011;29070;48.102;-1.652;2022-12-18T02:15:29;29.35;;;10.77;;
39948;SDS011;29070;48.102;-1.652;2022-12-18T02:20:49;29.40;;;11.00;;
39948;SDS011;29070;48.102;-1.652;2022-12-18T02:31:13;25.20;;;11.13;;
39948;SDS011;29070;48.102;-1.652;2022-12-18T02:36:17;27.70;;;10.88;;
39948;SDS011;29070;48.102;-1.652;2022-12-18T02:41:21;31.70;;;11.50;;
39948;SDS011;29070;48.102;-1.652;2022-12-18T02:46:31;27.02;;;10.30;;
39948;SDS011;29070;48.102;-1.652;2022-12-18T02:51:38;32.28;;;10.02;;
39948;SDS011;29070;48.102;-1.652;2022-12-18T02:56:51;34.53;;;12.02;;
39948;SDS011;29070;48.102;-1.652;2022-12-18T03:02:02;28.80;;;11.05;;
39948;SDS011;29070;48.102;-1.652;2022-12-18T03:07:47;27.20;;;10.80;;
39948;SDS011;29070;48.102;-1.652;2022-12-18T03:12:54;27.58;;;11.05;;
39948;SDS011;29070;48.102;-1.652;2022-12-18T03:18:06;26.33;;;10.38;;
39948;SDS011;29070;48.102;-1.652;2022-12-18T03:23:14;23.63;;;10.32;;
39948;SDS011;29070;48.102;-1.652;2022-12-18T03:28:20;24.65;;;9.93;;
39948;SDS011;29070;48.102;-1.652;2022-12-18T03:38:31;28.98;;;10.77;;
39948;SDS011;29070;48.102;-1.652;2022-12-18T03:48:38;25.80;;;10.35;;
39948;SDS011;29070;48.102;-1.652;2022-12-18T03:58:49;27.25;;;10.63;;
39948;SDS011;29070;48.102;-1.652;2022-12-18T04:03:52;30.08;;;10.07;;
39948;SDS011;29070;48.102;-1.652;2022-12-18T04:08:53;26.33;;;10.10;;
39948;SDS011;29070;48.102;-1.652;2022-12-18T04:13:57;25.90;;;9.60;;
39948;SDS011;29070;48.102;-1.652;2022-12-18T04:18:58;22.65;;;9.90;;
39948;SDS011;29070;48.102;-1.652;2022-12-18T04:23:59;28.75;;;10.55;;
39948;SDS011;29070;48.102;-1.652;2022-12-18T04:28:59;24.33;;;9.53;;
39948;SDS011;29070;48.102;-1.652;2022-12-18T04:34:00;25.90;;;10.40;;
39948;SDS011;29070;48.102;-1.652;2022-12-18T04:39:00;23.00;;;9.77;;
39948;SDS011;29070;48.102;-1.652;2022-12-18T04:44:01;23.58;;;10.38;;
39948;SDS011;29070;48.102;-1.652;2022-12-18T04:49:01;23.10;;;9.93;;
39948;SDS011;29070;48.102;-1.652;2022-12-18T04:54:02;25.23;;;9.98;;
39948;SDS011;29070;48.102;-1.652;2022-12-18T04:59:02;26.25;;;10.00;;
39948;SDS011;29070;48.102;-1.652;2022-12-18T05:04:03;21.37;;;9.70;;
39948;SDS011;29070;48.102;-1.652;2022-12-18T05:09:03;21.77;;;9.50;;
39948;SDS011;29070;48.102;-1.652;2022-12-18T05:14:04;27.20;;;10.00;;
39948;SDS011;29070;48.102;-1.652;2022-12-18T05:19:04;23.10;;;10.17;;
39948;SDS011;29070;48.102;-1.652;2022-12-18T05:24:04;26.03;;;9.93;;
39948;SDS011;29070;48.102;-1.652;2022-12-18T05:29:05;23.25;;;9.65;;
39948;SDS011;29070;48.102;-1.652;2022-12-18T05:34:05;23.30;;;9.30;;
39948;SDS011;29070;48.102;-1.652;2022-12-18T05:39:06;25.58;;;9.23;;
39948;SDS011;29070;48.102;-1.652;2022-12-18T05:44:07;24.00;;;9.10;;
39948;SDS011;29070;48.102;-1.652;2022-12-18T05:49:07;28.95;;;11.13;;
39948;SDS011;29070;48.102;-1.652;2022-12-18T05:54:07;29.20;;;9.63;;
39948;SDS011;29070;48.102;-1.652;2022-12-18T05:59:08;25.97;;;9.10;;
39948;SDS011;29070;48.102;-1.652;2022-12-18T06:04:08;24.98;;;9.57;;
39948;SDS011;29070;48.102;-1.652;2022-12-18T06:09:09;31.77;;;10.97;;
39948;SDS011;29070;48.102;-1.652;2022-12-18T06:14:09;24.08;;;9.55;;
39948;SDS011;29070;48.102;-1.652;2022-12-18T06:19:12;26.17;;;9.98;;
39948;SDS011;29070;48.102;-1.652;2022-12-18T06:24:14;28.70;;;10.77;;
39948;SDS011;29070;48.102;-1.652;2022-12-18T06:29:15;20.50;;;9.27;;
39948;SDS011;29070;48.102;-1.652;2022-12-18T06:34:15;24.58;;;9.23;;
39948;SDS011;29070;48.102;-1.652;2022-12-18T06:39:16;25.00;;;10.43;;
39948;SDS011;29070;48.102;-1.652;2022-12-18T06:44:16;29.20;;;10.20;;
39948;SDS011;29070;48.102;-1.652;2022-12-18T06:49:16;27.27;;;9.80;;
39948;SDS011;29070;48.102;-1.652;2022-12-18T06:54:17;22.27;;;9.15;;
39948;SDS011;29070;48.102;-1.652;2022-12-18T06:59:17;23.70;;;9.33;;
39948;SDS011;29070;48.102;-1.652;2022-12-18T07:04:17;21.63;;;9.73;;
39948;SDS011;29070;48.102;-1.652;2022-12-18T07:09:18;23.27;;;9.63;;
39948;SDS011;29070;48.102;-1.652;2022-12-18T07:14:18;23.52;;;8.82;;
39948;SDS011;29070;48.102;-1.652;2022-12-18T07:19:19;23.17;;;10.07;;
39948;SDS011;29070;48.102;-1.652;2022-12-18T07:24:19;20.47;;;9.37;;
39948;SDS011;29070;48.102;-1.652;2022-12-18T07:29:20;29.53;;;9.97;;
39948;SDS011;29070;48.102;-1.652;2022-12-18T07:34:20;24.70;;;10.30;;
39948;SDS011;29070;48.102;-1.652;2022-12-18T07:39:21;27.10;;;10.20;;
39948;SDS011;29070;48.102;-1.652;2022-12-18T07:44:21;29.03;;;9.83;;
39948;SDS011;29070;48.102;-1.652;2022-12-18T07:49:21;23.75;;;9.38;;
39948;SDS011;29070;48.102;-1.652;2022-12-18T07:54:22;27.57;;;10.23;;
39948;SDS011;29070;48.102;-1.652;2022-12-18T07:59:23;28.75;;;11.57;;
39948;SDS011;29070;48.102;-1.652;2022-12-18T08:04:24;26.55;;;10.40;;
39948;SDS011;29070;48.102;-1.652;2022-12-18T08:09:25;27.88;;;10.43;;
39948;SDS011;29070;48.102;-1.652;2022-12-18T08:14:25;26.63;;;10.43;;
39948;SDS011;29070;48.102;-1.652;2022-12-18T08:19:25;26.58;;;10.48;;
39948;SDS011;29070;48.102;-1.652;2022-12-18T08:24:26;30.25;;;11.63;;
39948;SDS011;29070;48.102;-1.652;2022-12-18T08:29:26;23.90;;;10.27;;
39948;SDS011;29070;48.102;-1.652;2022-12-18T08:34:26;23.63;;;9.33;;
39948;SDS011;29070;48.102;-1.652;2022-12-18T08:39:27;26.98;;;10.27;;
39948;SDS011;29070;48.102;-1.652;2022-12-18T08:44:27;25.50;;;9.98;;
39948;SDS011;29070;48.102;-1.652;2022-12-18T08:49:40;26.05;;;10.48;;
39948;SDS011;29070;48.102;-1.652;2022-12-18T08:54:40;26.27;;;10.23;;
39948;SDS011;29070;48.102;-1.652;2022-12-18T08:59:41;25.33;;;10.00;;
39948;SDS011;29070;48.102;-1.652;2022-12-18T09:04:41;31.15;;;10.52;;
39948;SDS011;29070;48.102;-1.652;2022-12-18T09:09:41;32.88;;;11.20;;
39948;SDS011;29070;48.102;-1.652;2022-12-18T09:14:42;28.65;;;10.45;;
39948;SDS011;29070;48.102;-1.652;2022-12-18T09:19:42;28.30;;;10.40;;
39948;SDS011;29070;48.102;-1.652;2022-12-18T09:24:43;30.88;;;11.98;;
39948;SDS011;29070;48.102;-1.652;2022-12-18T09:29:43;27.33;;;10.50;;
39948;SDS011;29070;48.102;-1.652;2022-12-18T09:34:44;30.07;;;11.73;;
39948;SDS011;29070;48.102;-1.652;2022-12-18T09:39:44;29.40;;;10.43;;
39948;SDS011;29070;48.102;-1.652;2022-12-18T09:44:45;30.00;;;11.20;;
39948;SDS011;29070;48.102;-1.652;2022-12-18T09:49:51;31.90;;;11.45;;
39948;SDS011;29070;48.102;-1.652;2022-12-18T09:55:22;31.00;;;12.00;;
39948;SDS011;29070;48.102;-1.652;2022-12-18T10:00:44;28.27;;;11.23;;
39948;SDS011;29070;48.102;-1.652;2022-12-18T10:27:22;31.85;;;12.15;;
39948;SDS011;29070;48.102;-1.652;2022-12-18T10:32:26;30.75;;;11.65;;
39948;SDS011;29070;48.102;-1.652;2022-12-18T10:37:29;36.97;;;12.38;;
39948;SDS011;29070;48.102;-1.652;2022-12-18T10:42:30;34.05;;;11.40;;
39948;SDS011;29070;48.102;-1.652;2022-12-18T10:47:30;37.13;;;12.48;;
39948;SDS011;29070;48.102;-1.652;2022-12-18T10:52:32;40.15;;;12.52;;
39948;SDS011;29070;48.102;-1.652;2022-12-18T10:57:39;30.88;;;11.70;;
39948;SDS011;29070;48.102;-1.652;2022-12-18T11:02:41;36.05;;;11.63;;
39948;SDS011;29070;48.102;-1.652;2022-12-18T11:07:48;33.17;;;11.50;;
39948;SDS011;29070;48.102;-1.652;2022-12-18T11:12:50;33.03;;;12.02;;
39948;SDS011;29070;48.102;-1.652;2022-12-18T11:17:50;30.67;;;11.88;;
39948;SDS011;29070;48.102;-1.652;2022-12-18T11:22:55;26.85;;;12.07;;
39948;SDS011;29070;48.102;-1.652;2022-12-18T11:28:05;34.35;;;12.88;;
39948;SDS011;29070;48.102;-1.652;2022-12-18T11:33:25;28.08;;;11.15;;
39948;SDS011;29070;48.102;-1.652;2022-12-18T11:38:27;32.22;;;11.45;;
39948;SDS011;29070;48.102;-1.652;2022-12-18T11:43:31;28.27;;;11.48;;
39948;SDS011;29070;48.102;-1.652;2022-12-18T11:48:45;27.50;;;11.07;;
39948;SDS011;29070;48.102;-1.652;2022-12-18T11:53:52;36.53;;;12.32;;
39948;SDS011;29070;48.102;-1.652;2022-12-18T12:09:09;28.20;;;12.18;;
39948;SDS011;29070;48.102;-1.652;2022-12-18T12:19:57;28.83;;;11.13;;
39948;SDS011;29070;48.102;-1.652;2022-12-18T12:41:22;30.15;;;10.95;;
39948;SDS011;29070;48.102;-1.652;2022-12-18T12:46:56;30.23;;;12.88;;
39948;SDS011;29070;48.102;-1.652;2022-12-18T12:52:03;30.15;;;11.68;;
39948;SDS011;29070;48.102;-1.652;2022-12-18T12:57:09;30.50;;;11.60;;
39948;SDS011;29070;48.102;-1.652;2022-12-18T13:02:25;31.75;;;12.00;;
39948;SDS011;29070;48.102;-1.652;2022-12-18T13:07:31;31.60;;;11.77;;
39948;SDS011;29070;48.102;-1.652;2022-12-18T13:12:35;27.65;;;12.00;;
39948;SDS011;29070;48.102;-1.652;2022-12-18T13:18:06;28.85;;;11.88;;
39948;SDS011;29070;48.102;-1.652;2022-12-18T13:33:46;34.78;;;14.07;;
39948;SDS011;29070;48.102;-1.652;2022-12-18T13:38:46;35.20;;;12.73;;
39948;SDS011;29070;48.102;-1.652;2022-12-18T13:43:48;28.95;;;12.32;;
39948;SDS011;29070;48.102;-1.652;2022-12-18T13:54:05;29.25;;;12.15;;
39948;SDS011;29070;48.102;-1.652;2022-12-18T13:59:19;35.03;;;12.93;;
39948;SDS011;29070;48.102;-1.652;2022-12-18T14:09:26;34.30;;;13.18;;
39948;SDS011;29070;48.102;-1.652;2022-12-18T14:14:29;29.20;;;12.93;;
39948;SDS011;29070;48.102;-1.652;2022-12-18T14:19:29;29.63;;;13.18;;
39948;SDS011;29070;48.102;-1.652;2022-12-18T14:24:29;31.67;;;12.63;;
39948;SDS011;29070;48.102;-1.652;2022-12-18T14:29:30;29.23;;;11.80;;
39948;SDS011;29070;48.102;-1.652;2022-12-18T14:34:31;32.53;;;13.95;;
39948;SDS011;29070;48.102;-1.652;2022-12-18T14:39:31;32.13;;;12.47;;
39948;SDS011;29070;48.102;-1.652;2022-12-18T14:44:31;32.42;;;11.90;;
39948;SDS011;29070;48.102;-1.652;2022-12-18T14:49:32;35.95;;;13.25;;
39948;SDS011;29070;48.102;-1.652;2022-12-18T14:54:34;31.75;;;13.35;;
39948;SDS011;29070;48.102;-1.652;2022-12-18T14:59:37;32.38;;;13.70;;
39948;SDS011;29070;48.102;-1.652;2022-12-18T15:04:38;35.25;;;12.60;;
39948;SDS011;29070;48.102;-1.652;2022-12-18T15:09:41;30.20;;;12.73;;
39948;SDS011;29070;48.102;-1.652;2022-12-18T15:14:43;26.83;;;12.07;;
39948;SDS011;29070;48.102;-1.652;2022-12-18T15:19:43;24.92;;;11.13;;
39948;SDS011;29070;48.102;-1.652;2022-12-18T15:24:45;36.60;;;12.77;;
39948;SDS011;29070;48.102;-1.652;2022-12-18T15:29:59;34.00;;;12.80;;
39948;SDS011;29070;48.102;-1.652;2022-12-18T15:35:22;26.33;;;10.73;;
39948;SDS011;29070;48.102;-1.652;2022-12-18T15:40:24;24.13;;;10.93;;
39948;SDS011;29070;48.102;-1.652;2022-12-18T15:45:25;25.88;;;9.98;;
39948;SDS011;29070;48.102;-1.652;2022-12-18T15:50:25;23.27;;;10.30;;
39948;SDS011;29070;48.102;-1.652;2022-12-18T15:55:26;23.90;;;9.05;;
39948;SDS011;29070;48.102;-1.652;2022-12-18T16:00:45;20.23;;;9.23;;
39948;SDS011;29070;48.102;-1.652;2022-12-18T16:05:45;16.27;;;8.35;;
39948;SDS011;29070;48.102;-1.652;2022-12-18T16:10:45;19.43;;;8.67;;
39948;SDS011;29070;48.102;-1.652;2022-12-18T16:15:46;17.40;;;8.10;;
39948;SDS011;29070;48.102;-1.652;2022-12-18T16:20:47;20.35;;;9.40;;
39948;SDS011;29070;48.102;-1.652;2022-12-18T16:25:47;17.65;;;8.00;;
39948;SDS011;29070;48.102;-1.652;2022-12-18T16:30:48;18.55;;;8.57;;
39948;SDS011;29070;48.102;-1.652;2022-12-18T16:35:52;18.17;;;8.55;;
39948;SDS011;29070;48.102;-1.652;2022-12-18T16:40:53;16.95;;;7.43;;
39948;SDS011;29070;48.102;-1.652;2022-12-18T16:46:12;21.60;;;8.10;;
39948;SDS011;29070;48.102;-1.652;2022-12-18T16:51:12;22.45;;;7.75;;
39948;SDS011;29070;48.102;-1.652;2022-12-18T16:56:13;14.80;;;7.27;;
39948;SDS011;29070;48.102;-1.652;2022-12-18T17:01:13;16.13;;;6.57;;
39948;SDS011;29070;48.102;-1.652;2022-12-18T17:06:13;15.17;;;6.17;;
39948;SDS011;29070;48.102;-1.652;2022-12-18T17:11:14;15.45;;;7.65;;
39948;SDS011;29070;48.102;-1.652;2022-12-18T17:16:14;16.85;;;8.20;;
39948;SDS011;29070;48.102;-1.652;2022-12-18T17:21:16;13.90;;;6.90;;
39948;SDS011;29070;48.102;-1.652;2022-12-18T17:26:16;11.82;;;5.93;;
39948;SDS011;29070;48.102;-1.652;2022-12-18T17:31:18;12.20;;;6.73;;
39948;SDS011;29070;48.102;-1.652;2022-12-18T17:36:21;14.98;;;6.88;;
39948;SDS011;29070;48.102;-1.652;2022-12-18T17:41:22;13.40;;;6.18;;
39948;SDS011;29070;48.102;-1.652;2022-12-18T17:46:24;15.50;;;6.57;;
39948;SDS011;29070;48.102;-1.652;2022-12-18T17:51:25;12.60;;;5.85;;
39948;SDS011;29070;48.102;-1.652;2022-12-18T17:56:26;21.02;;;8.23;;
39948;SDS011;29070;48.102;-1.652;2022-12-18T18:01:27;13.37;;;6.93;;
39948;SDS011;29070;48.102;-1.652;2022-12-18T18:06:27;17.63;;;6.50;;
39948;SDS011;29070;48.102;-1.652;2022-12-18T18:11:28;15.13;;;6.18;;
39948;SDS011;29070;48.102;-1.652;2022-12-18T18:16:47;14.15;;;6.13;;
39948;SDS011;29070;48.102;-1.652;2022-12-18T18:21:50;12.05;;;5.72;;
39948;SDS011;29070;48.102;-1.652;2022-12-18T18:26:51;15.52;;;6.28;;
39948;SDS011;29070;48.102;-1.652;2022-12-18T18:31:52;13.13;;;5.93;;
39948;SDS011;29070;48.102;-1.652;2022-12-18T18:36:52;12.52;;;5.80;;
39948;SDS011;29070;48.102;-1.652;2022-12-18T18:41:53;12.17;;;5.33;;
39948;SDS011;29070;48.102;-1.652;2022-12-18T18:46:54;13.73;;;6.47;;
39948;SDS011;29070;48.102;-1.652;2022-12-18T18:51:56;12.93;;;6.85;;
39948;SDS011;29070;48.102;-1.652;2022-12-18T18:56:56;12.88;;;5.82;;
39948;SDS011;29070;48.102;-1.652;2022-12-18T19:01:57;10.97;;;5.17;;
39948;SDS011;29070;48.102;-1.652;2022-12-18T19:06:57;14.90;;;5.53;;
39948;SDS011;29070;48.102;-1.652;2022-12-18T19:11:58;10.93;;;4.90;;
39948;SDS011;29070;48.102;-1.652;2022-12-18T19:17:17;9.80;;;4.72;;
39948;SDS011;29070;48.102;-1.652;2022-12-18T19:22:17;8.57;;;5.30;;
39948;SDS011;29070;48.102;-1.652;2022-12-18T19:27:18;11.95;;;5.28;;
39948;SDS011;29070;48.102;-1.652;2022-12-18T19:32:18;11.97;;;5.60;;
39948;SDS011;29070;48.102;-1.652;2022-12-18T19:37:18;17.40;;;5.70;;
39948;SDS011;29070;48.102;-1.652;2022-12-18T19:42:19;13.17;;;4.80;;
39948;SDS011;29070;48.102;-1.652;2022-12-18T19:47:19;13.57;;;5.47;;
39948;SDS011;29070;48.102;-1.652;2022-12-18T19:52:19;15.87;;;5.27;;
39948;SDS011;29070;48.102;-1.652;2022-12-18T19:57:20;10.70;;;5.20;;
39948;SDS011;29070;48.102;-1.652;2022-12-18T20:02:20;14.60;;;5.10;;
39948;SDS011;29070;48.102;-1.652;2022-12-18T20:07:20;14.90;;;5.50;;
39948;SDS011;29070;48.102;-1.652;2022-12-18T20:12:21;14.33;;;4.70;;
39948;SDS011;29070;48.102;-1.652;2022-12-18T20:17:21;11.67;;;4.50;;
39948;SDS011;29070;48.102;-1.652;2022-12-18T20:22:21;9.50;;;4.23;;
39948;SDS011;29070;48.102;-1.652;2022-12-18T20:27:22;9.53;;;3.80;;
39948;SDS011;29070;48.102;-1.652;2022-12-18T20:32:22;8.20;;;4.13;;
39948;SDS011;29070;48.102;-1.652;2022-12-18T20:37:23;9.33;;;3.97;;
39948;SDS011;29070;48.102;-1.652;2022-12-18T20:42:23;9.23;;;4.07;;
39948;SDS011;29070;48.102;-1.652;2022-12-18T20:47:23;12.47;;;4.40;;
39948;SDS011;29070;48.102;-1.652;2022-12-18T20:52:24;7.17;;;3.90;;
39948;SDS011;29070;48.102;-1.652;2022-12-18T20:57:24;8.67;;;3.60;;
39948;SDS011;29070;48.102;-1.652;2022-12-18T21:02:24;6.60;;;3.10;;
39948;SDS011;29070;48.102;-1.652;2022-12-18T21:07:25;10.87;;;3.40;;
39948;SDS011;29070;48.102;-1.652;2022-12-18T21:12:26;7.95;;;3.08;;
39948;SDS011;29070;48.102;-1.652;2022-12-18T21:22:42;6.40;;;3.30;;
39948;SDS011;29070;48.102;-1.652;2022-12-18T21:27:42;9.87;;;3.60;;
39948;SDS011;29070;48.102;-1.652;2022-12-18T21:32:42;8.17;;;3.70;;
39948;SDS011;29070;48.102;-1.652;2022-12-18T21:37:43;8.57;;;3.35;;
39948;SDS011;29070;48.102;-1.652;2022-12-18T21:42:43;9.73;;;3.40;;
39948;SDS011;29070;48.102;-1.652;2022-12-18T21:48:02;9.52;;;3.63;;
39948;SDS011;29070;48.102;-1.652;2022-12-18T21:53:02;6.55;;;3.42;;
39948;SDS011;29070;48.102;-1.652;2022-12-18T21:58:03;6.73;;;3.10;;
39948;SDS011;29070;48.102;-1.652;2022-12-18T22:03:03;7.77;;;3.00;;
39948;SDS011;29070;48.102;-1.652;2022-12-18T22:08:04;7.27;;;2.87;;
39948;SDS011;29070;48.102;-1.652;2022-12-18T22:13:05;5.75;;;3.33;;
39948;SDS011;29070;48.102;-1.652;2022-12-18T22:18:06;6.55;;;3.20;;
39948;SDS011;29070;48.102;-1.652;2022-12-18T22:23:06;8.70;;;3.87;;
39948;SDS011;29070;48.102;-1.652;2022-12-18T22:28:08;6.75;;;3.50;;
39948;SDS011;29070;48.102;-1.652;2022-12-18T22:33:26;8.88;;;3.70;;
39948;SDS011;29070;48.102;-1.652;2022-12-18T22:38:27;7.90;;;3.15;;
39948;SDS011;29070;48.102;-1.652;2022-12-18T22:43:27;6.03;;;3.00;;
39948;SDS011;29070;48.102;-1.652;2022-12-18T22:48:28;8.07;;;3.95;;
39948;SDS011;29070;48.102;-1.652;2022-12-18T22:53:29;8.20;;;3.33;;
39948;SDS011;29070;48.102;-1.652;2022-12-18T22:58:29;9.63;;;3.30;;
39948;SDS011;29070;48.102;-1.652;2022-12-18T23:03:32;8.60;;;3.03;;
39948;SDS011;29070;48.102;-1.652;2022-12-18T23:08:33;5.90;;;2.97;;
39948;SDS011;29070;48.102;-1.652;2022-12-18T23:13:34;5.97;;;3.10;;
39948;SDS011;29070;48.102;-1.652;2022-12-18T23:18:35;5.60;;;2.80;;
39948;SDS011;29070;48.102;-1.652;2022-12-18T23:23:36;7.72;;;2.88;;
39948;SDS011;29070;48.102;-1.652;2022-12-18T23:28:37;8.80;;;3.13;;
39948;SDS011;29070;48.102;-1.652;2022-12-18T23:33:38;7.50;;;2.83;;
39948;SDS011;29070;48.102;-1.652;2022-12-18T23:38:39;8.55;;;3.20;;
39948;SDS011;29070;48.102;-1.652;2022-12-18T23:43:39;7.70;;;3.05;;
39948;SDS011;29070;48.102;-1.652;2022-12-18T23:48:40;6.13;;;3.08;;
39948;SDS011;29070;48.102;-1.652;2022-12-18T23:53:41;7.27;;;2.87;;
39948;SDS011;29070;48.102;-1.652;2022-12-18T23:58:42;11.70;;;3.05;;
